Mangiantini, Glen
United StatesManBorn 19572005 – 2026Runner id 47594
Events
166
2005 – 2026
Best pace
11.076
km/h · 2005
Best finish
11th
of 66 · 2009
Distance raced
11,286
km · splits not double-counted
Pace over time
km/h · higher is faster
Pace over time: 166 races from 2005 to 2026, ranging from 3.93 to 12.10 kilometres per hour, where higher is faster. A second, age-graded series is drawn above it; the gap between the two is the age credit.
- Actual pace
- Age-graded pace
Results
| Date | Event | Distance | Result | Pace km/h | Placing |
|---|---|---|---|---|---|
| 2005-01-08 | Bridle Trails Winter Running FestivalUnited States | 50km | 5:15:40 h | 9.504 | 23/34 |
| 2005-04-17 | 50km | 4:30:52 h | 11.076 | 9/41 | |
| 2005-07-30 | 50mi | 11:16:10 h | 7.140 | 81/115 | |
| 2005-10-01 | Baker Lake 50K Ultra Trail RunUnited States | 50km | 6:00:06 h | 8.331 | 45/101 |
| 2006-02-11 | Orcas Island 50kUnited States | 50km | 8:19:00 h | 6.012 | 22/23 |
| 2006-04-23 | 50mi | 9:37:30 h | 8.360 | 36/48 | |
| 2006-07-29 | 50mi | 12:08:51 h | 6.624 | 104/124 | |
| 2006-10-07 | Baker Lake 50K Ultra Trail RunUnited States | 50km | 6:31:12 h | 7.669 | 67/113 |
| 2006-11-11 | Ron Herzog 50KUnited States | 50km | 5:42:01 h | 8.772 | 15/32 |
| 2007-01-13 | Bridle Trails Winter Running FestivalUnited States | 50km | 5:39:35 h | 8.834 | 35/44 |
| 2007-02-10 | 50km | 8:04:00 h | 6.198 | 34/35 | |
| 2007-04-22 | 50mi | 10:11:33 h | 7.895 | 46/54 | |
| 2007-07-28 | 50mi | 10:34:22 h | 7.611 | 75/144 | |
| 2007-08-25 | 100mi | 30:45:00 h | 5.234 | 55/67 | |
| 2007-10-06 | Baker Lake 50K Ultra Trail RunUnited States | 50km | 5:52:05 h | 8.521 | 22/77 |
| 2008-01-12 | Bridle Trails Winter Running FestivalUnited States | 50km | 5:39:12 h | 8.844 | 22/44 |
| 2008-01-26 | Pigtails Run 50KUnited States | 50km | 5:08:08 h | 9.736 | 23/49 |
| 2008-02-03 | Lord Hill Trail RunUnited States | 50km | 6:33:00 h | 7.634 | 22/30 |
| 2008-02-16 | 50km | 7:11:33 h | 6.952 | 38/59 | |
| 2008-03-15 | Chuckanut 50KUnited States | 50km | 6:41:07 h | 7.479 | 203/294 |
| 2008-04-13 | 50mi | 8:51:15 h | 9.088 | 31/50 | |
| 2008-04-26 | 50mi | 11:19:30 h | 7.105 | 28/37 | |
| 2008-05-17 | Watershed Preserve 12 Hr Trail RaceUnited States | 12h | 83.653 km | 6.971 | 16/53 |
| 2008-05-31 | The 20th Century 100K Trail RunUnited States | 100km | 12:36:02 h | 7.936 | 10/15 |
| 2008-07-26 | 50mi | 10:51:57 h | 7.406 | 120/202 | |
| 2008-08-23 | 100mi | 30:59:15 h | 5.194 | 69/77 | |
| 2008-09-13 | Cle Elum Ridge 50kUnited States | 50km | 6:27:00 h | 7.752 | 34/80 |
| 2008-11-01 | Ron Herzog 50KUnited States | 50km | 5:38:00 h | 8.876 | 11/30 |
| 2009-01-10 | Bridle Trails Winter Running FestivalUnited States | 50km | 5:48:02 h | 8.620 | 29/50 |
| 2009-01-24 | Pigtails Run 50KUnited States | 50km | 5:30:00 h | 9.091 | 29/49 |
| 2009-02-07 | Orcas Island 50kUnited States | 50km | 7:01:34 h | 7.116 | 56/106 |
| 2009-03-21 | Chuckanut 50KUnited States | 50km | 5:54:39 h | 8.459 | 117/270 |
| 2009-04-11 | 50km | 6:10:50 h | 8.090 | 30/52 | |
| 2009-04-19 | 50mi | 8:06:37 h | 9.922 | 12/48 | |
| 2009-04-25 | 50mi | 10:46:18 h | 7.470 | 28/43 | |
| 2009-05-16 | Watershed Preserve 12 Hr Trail RaceUnited States | 12h | 97.477 km | 8.123 | 11/66 |
| 2009-06-27 | 100mi | 29:40:33 h | 5.423 | 223/238 | |
| 2009-07-25 | 50mi | 11:37:56 h | 6.918 | 119/166 | |
| 2009-08-29 | 100mi | 29:14:29 h | 5.504 | 74/96 | |
| 2009-10-03 | Baker Lake 50K Ultra Trail RunUnited States | 50km | 6:25:00 h | 7.792 | 26/65 |
| 2009-11-07 | Ron Herzog 50KUnited States | 50km | 5:29:10 h | 9.114 | 19/31 |
| 2009-11-28 | Ghost of Seattle MarathonUnited States | 50km | 5:06:41 h | 9.782 | 4/6 |
| 2010-01-09 | Bridle Trails Winter Running FestivalUnited States | 50km | 5:39:37 h | 8.833 | 44/70 |
| 2010-01-23 | Pigtails Run 50KUnited States | 50km | 5:22:24 h | 9.305 | 35/80 |
| 2010-02-06 | 50km | 6:57:34 h | 7.184 | 84/123 | |
| 2010-03-07 | Lord Hill Trail RunUnited States | 50km | 6:40:48 h | 7.485 | 10/21 |
| 2010-03-20 | 50km | 5:51:24 h | 8.537 | 162/287 | |
| 2010-04-25 | 50mi | 10:38:10 h | 7.565 | 61/88 | |
| 2010-05-08 | 50km | 7:24:25 h | 6.750 | 17/39 | |
| 2010-05-15 | 12h | 92.295 km | 7.691 | 18/80 | |
| 2010-06-26 | 100mi | 28:48:56 h | 5.585 | 256/328 | |
| 2010-07-31 | 50mi | 11:14:48 h | 7.155 | 119/194 | |
| 2010-08-28 | 100mi | 30:42:11 h | 5.242 | 72/78 | |
| 2010-09-18 | 50km | 6:57:19 h | 7.189 | 45/97 | |
| 2010-10-02 | Baker Lake 50K Ultra Trail RunUnited States | 50km | 6:15:00 h | 8.000 | 46/115 |
| 2010-11-06 | Ron Herzog 50KUnited States | 50km | 6:34:27 h | 7.606 | 22/35 |
| 2011-01-08 | Bridle Trails Winter Running FestivalUnited States | 50km | 6:43:43 h | 7.431 | 40/46 |
| 2011-02-05 | 50km | 8:14:41 h | 6.064 | 98/129 | |
| 2011-03-11 | 50km | 7:23:32 h | 6.764 | 87/125 | |
| 2011-03-19 | 50km | 6:27:20 h | 7.745 | 198/298 | |
| 2011-04-10 | 50mi | 10:19:01 h | 7.800 | 35/43 | |
| 2011-04-30 | 50mi | 12:17:45 h | 6.544 | 77/82 | |
| 2011-05-07 | 50km | 8:27:12 h | 5.915 | 33/47 | |
| 2011-05-14 | 12h | 60.551 km | 5.046 | 47/68 | |
| 2011-07-02 | Lord Hill Summer Trail RunUnited States | 50km | 6:17:39 h | 7.944 | 13/30 |
| 2011-07-30 | 50mi | 11:47:36 h | 6.823 | 185/244 | |
| 2011-08-27 | 100mi | 30:02:08 h | 5.358 | 84/106 | |
| 2011-09-24 | Middle Fork 50kUnited States | 50km | 6:04:06 h | 8.239 | 11/17 |
| 2011-10-01 | 50km | 6:25:38 h | 7.779 | 43/122 | |
| 2011-10-30 | Cougar Mountain Trail RunUnited States | 50km | 7:27:37 h | 6.702 | 28/56 |
| 2011-12-10 | 50km | 6:44:24 h | 7.418 | 48/63 | |
| 2012-01-28 | Bridle Trails Winter Running FestivalUnited States | 50km | 5:38:52 h | 8.853 | 20/46 |
| 2012-02-04 | 50km | 7:17:44 h | 6.853 | 100/171 | |
| 2012-02-26 | Lord Hill Trail RunUnited States | 50km | 7:18:51 h | 6.836 | 35/55 |
| 2012-03-17 | 50km | 6:16:58 h | 7.958 | 311/550 | |
| 2012-04-21 | 50km | 8:52:13 h | 5.637 | 70/89 | |
| 2012-04-22 | 50mi | 11:52:50 h | 6.773 | 36/39 | |
| 2012-04-28 | 50mi | 11:33:15 h | 6.964 | 63/83 | |
| 2012-05-20 | 50mi | 11:23:32 h | 7.063 | 51/57 | |
| 2012-07-28 | 50mi | 11:22:00 h | 7.079 | 186/275 | |
| 2012-08-25 | 100mi | 30:57:14 h | 5.199 | 78/98 | |
| 2012-09-22 | Middle Fork 50kUnited States | 50km | 6:21:48 h | 7.858 | 13/42 |
| 2012-10-28 | Cougar Mountain Trail RunUnited States | 50km | 7:11:16 h | 6.956 | 48/59 |
| 2012-11-10 | Ron Herzog 50KUnited States | 50km | 6:09:48 h | 8.112 | 4/9 |
| 2013-01-13 | Bridle Trails Winter Running FestivalUnited States | 50km | 5:55:53 h | 8.430 | 41/55 |
| 2013-02-02 | 50km | 7:39:58 h | 6.522 | 156/215 | |
| 2013-02-24 | 50km | 6:50:17 h | 7.312 | 40/62 | |
| 2013-03-16 | 50km | 5:54:56 h | 8.452 | 173/346 | |
| 2013-04-21 | 50km | 8:44:04 h | 5.724 | 82/94 | |
| 2013-04-27 | 50mi | 10:44:45 h | 7.488 | 61/87 | |
| 2013-05-11 | 50km | 7:41:36 h | 6.499 | 22/44 | |
| 2013-05-18 | 12h | 88.819 km | 7.402 | 11/64 | |
| 2013-05-25 | Soaring Eagle 50 Km Trail RunUnited States | 50km | 5:29:06 h | 9.116 | 10/35 |
| 2013-06-29 | 100mi | 29:28:35 h | 5.460 | 256/277 | |
| 2013-07-27 | 50mi | 12:35:30 h | 6.391 | 239/286 | |
| 2013-08-24 | 100mi | 31:21:28 h | 5.132 | 101/117 | |
| 2013-10-05 | 50km | 6:56:40 h | 7.200 | 98/188 | |
| 2013-10-27 | Cougar Mountain Trail RunUnited States | 50km | 7:37:45 h | 6.554 | 20/25 |
| 2014-01-11 | Bridle Trails Winter Running FestivalUnited States | 50km | 6:19:12 h | 7.911 | 20/38 |
| 2014-01-18 | 34mi | 7:58:37 h | 6.859 | 44/56 | |
| 2014-02-01 | 50km | 7:37:26 h | 6.558 | 139/200 | |
| 2014-03-15 | 50km | 6:01:10 h | 8.306 | 178/348 | |
| 2014-04-20 | 50km | 7:54:30 h | 6.322 | 60/107 | |
| 2014-04-26 | 50mi | 12:11:52 h | 6.597 | 64/76 | |
| 2014-04-27 | 50mi | 11:51:42 h | 6.784 | 35/41 | |
| 2014-05-10 | 50km | 8:11:37 h | 6.102 | 32/44 | |
| 2014-07-26 | 50mi | 11:47:52 h | 6.821 | 157/248 | |
| 2014-08-23 | Cascade Crest Classic 100 MileUnited States | 100mi | 30:50:08 h | 5.219 | 91/105 |
| 2014-09-27 | 50km | 6:50:36 h | 7.306 | 15/47 | |
| 2014-10-18 | 50km | 6:51:52 h | 7.284 | 112/151 | |
| 2015-01-10 | 50km | 6:04:15 h | 8.236 | 27/50 | |
| 2015-01-17 | 50km | 7:39:21 h | 6.531 | 62/78 | |
| 2015-02-07 | 50km | 8:08:50 h | 6.137 | 191/241 | |
| 2015-03-28 | 100km | 16:07:58 h | 6.199 | 176/190 | |
| 2015-06-20 | Rattlesnake Ridge 50k RunUnited States | 50km | 6:46:28 h | 7.381 | 22/38 |
| 2015-07-25 | 50mi | 11:35:53 h | 6.938 | 165/276 | |
| 2015-08-29 | 100mi | 31:18:30 h | 5.140 | 90/99 | |
| 2015-09-18 | 100mi | 33:15:50 h | 4.838 | 66/108 | |
| 2015-09-26 | 50km | 7:20:39 h | 6.808 | 30/49 | |
| 2015-10-25 | 50km | 7:52:25 h | 6.350 | 34/34 | |
| 2015-11-14 | 50km | 8:36:50 h | 5.805 | 15/18 | |
| 2016-01-09 | 50km | 5:54:42 h | 8.458 | 46/73 | |
| 2016-02-06 | 50km | 7:42:02 h | 6.493 | 184/237 | |
| 2016-04-09 | 100km | 19:16:30 h | 5.188 | 10/12 | |
| 2016-07-23 | 50km | 9:56:00 h | 5.034 | 25/46 | |
| 2016-07-30 | 50mi | 12:18:07 h | 6.541 | 187/262 | |
| 2016-08-27 | 100mi | 32:53:24 h | 4.893 | 113/127 | |
| 2016-10-30 | 50km | 7:58:33 h | 6.269 | 26/30 | |
| 2017-01-14 | 50km | 5:55:39 h | 8.435 | 35/59 | |
| 2017-02-04 | 50km | 8:09:07 h | 6.134 | 168/200 | |
| 2017-04-22 | 50km | 8:25:22 h | 5.936 | 93/120 | |
| 2017-04-29 | 50mi | 12:21:43 h | 6.509 | 40/47 | |
| 2017-07-22 | 50km | 10:22:00 h | 4.823 | 42/57 | |
| 2017-08-19 | 100km | 19:08:02 h | 5.226 | 108/109 | |
| 2018-01-13 | Bridle Trails Winter Running FestivalUnited States | 50km | 8:50:22 h | 5.656 | 62/62 |
| 2019-02-02 | 50km | 10:29:23 h | 4.767 | 185/185 | |
| 2021-03-26 | 50mi | 15:43:23 h | 5.118 | 151/165 | |
| 2021-07-24 | 50km | 12:44:00 h | 3.927 | 56/57 | |
| 2021-10-02 | 50km | 8:27:50 h | 5.907 | 91/108 | |
| 2022-01-08 | 50km | 7:25:18 h | 6.737 | 42/44 | |
| 2022-07-15 | 50mi | 16:41:01 h | 4.823 | 18/18 | |
| 2022-07-30 | 50mi | 16:02:30 h | 5.016 | 93/94 | |
| 2022-09-17 | 50km | 12:17:00 h | 4.071 | 48/62 | |
| 2022-10-01 | 50km | 9:05:20 h | 5.501 | 37/41 | |
| 2022-10-30 | 50km | 8:50:48 h | 5.652 | 28/31 | |
| 2022-12-10 | Deception Pass 50 kmUnited States | 50km | 8:06:45 h | 6.163 | 196/198 |
| 2023-01-14 | 50km | 6:49:31 h | 7.326 | 25/29 | |
| 2023-01-28 | Orcas Island 50kUnited States | 50km | 9:02:07 h | 5.534 | 124/137 |
| 2023-03-24 | 50mi | 14:59:44 h | 5.366 | 111/136 | |
| 2023-10-07 | Middle Fork 50kUnited States | 50km | 8:25:37 h | 5.933 | 18/22 |
| 2023-10-29 | Cougar Mountain Trail RunUnited States | 50km | 9:21:18 h | 5.345 | 26/26 |
| 2024-01-13 | Bridle Trails Winter Running FestivalUnited States | 50km | 7:07:33 h | 7.017 | 36/37 |
| 2024-01-27 | Orcas Island 50kUnited States | 50km | 9:13:06 h | 5.424 | 115/133 |
| 2024-04-20 | Yakima Skyline Rim 50kUnited States | 50km | 10:09:34 h | 4.922 | 58/63 |
| 2024-10-05 | 50km | 7:59:23 h | 6.258 | 65/73 | |
| 2024-10-27 | 50km | 9:19:21 h | 5.363 | 34/39 | |
| 2024-12-14 | Deception Pass 50 kmUnited States | 50km | 8:17:26 h | 6.031 | 209/210 |
| 2025-01-11 | 50km | 7:58:58 h | 6.263 | 36/38 | |
| 2025-06-07 | Orcas Island 50kUnited States | 50km | 9:00:04 h | 5.555 | 86/116 |
| 2025-10-04 | 50km | 7:22:14 h | 6.784 | 57/92 | |
| 2025-10-25 | Cougar Mountain Trail RunUnited States | 50km | 8:53:17 h | 5.626 | 36/38 |
| 2026-01-17 | 50km | 7:50:54 h | 6.371 | 53/56 | |
| 2026-03-27 | 50mi | 15:03:25 h | 5.344 | 128/178 | |
| 2026-06-06 | Orcas Island 50kUnited States | 50km | 8:52:09 h | 5.638 | 80/99 |
| 2026-06-27 | 50km | 11:27:00 h | 4.367 | 42/52 | |
| 2026-08-15 | 100km | 21:01:49 h | 4.755 | 82/82 |